createdAt,value
2022-10-10T00:00:36.905Z,0.00
2022-10-10T00:01:36.929Z,0.00
2022-10-10T00:02:36.885Z,0.00
2022-10-10T00:03:36.884Z,0.00
2022-10-10T00:04:36.866Z,0.00
2022-10-10T00:05:36.847Z,0.00
2022-10-10T00:06:36.897Z,0.00
2022-10-10T00:07:36.844Z,0.00
2022-10-10T00:08:36.896Z,0.00
2022-10-10T00:09:36.824Z,0.00
2022-10-10T00:10:36.797Z,0.00
2022-10-10T00:11:36.797Z,0.00
2022-10-10T00:12:36.786Z,0.00
2022-10-10T00:13:36.847Z,0.00
2022-10-10T00:14:36.780Z,0.00
2022-10-10T00:15:36.738Z,0.00
2022-10-10T00:16:36.747Z,0.00
2022-10-10T00:17:36.748Z,0.00
2022-10-10T00:18:36.726Z,0.00
2022-10-10T00:19:36.717Z,0.00
2022-10-10T00:20:36.689Z,0.00
2022-10-10T00:21:36.669Z,0.00
2022-10-10T00:22:36.668Z,0.00
2022-10-10T00:23:36.660Z,0.00
2022-10-10T00:24:36.639Z,0.00
2022-10-10T00:25:36.648Z,0.00
2022-10-10T00:26:36.618Z,0.00
2022-10-10T00:27:36.598Z,0.00
2022-10-10T00:28:36.956Z,0.00
2022-10-10T00:29:36.598Z,0.00
2022-10-10T00:30:36.649Z,0.00
2022-10-10T00:31:36.567Z,0.00
2022-10-10T00:32:36.562Z,0.00
2022-10-10T00:33:36.570Z,0.00
2022-10-10T00:34:36.538Z,0.00
2022-10-10T00:35:36.523Z,0.00
2022-10-10T00:36:36.512Z,0.00
2022-10-10T00:37:36.504Z,0.00
2022-10-10T00:38:36.546Z,0.00
2022-10-10T00:39:36.471Z,0.00
2022-10-10T00:40:36.481Z,0.00
2022-10-10T00:41:36.471Z,0.00
2022-10-10T00:42:36.451Z,0.00
2022-10-10T00:43:36.452Z,0.00
2022-10-10T00:44:36.422Z,0.00
2022-10-10T00:45:36.410Z,0.00
2022-10-10T00:46:36.403Z,0.00
2022-10-10T00:47:36.381Z,0.00
2022-10-10T00:48:36.392Z,0.00
2022-10-10T00:49:36.377Z,0.00
2022-10-10T00:50:36.364Z,0.00
2022-10-10T00:51:36.372Z,0.00
2022-10-10T00:52:36.352Z,0.00
2022-10-10T00:53:36.450Z,0.00
2022-10-10T00:54:36.322Z,0.00
2022-10-10T00:55:36.313Z,0.00
2022-10-10T00:56:36.293Z,0.00
2022-10-10T00:57:36.274Z,0.00
2022-10-10T00:58:36.301Z,0.00
2022-10-10T00:59:36.254Z,0.00
2022-10-10T01:00:36.272Z,0.00
2022-10-10T01:01:36.243Z,0.00
2022-10-10T01:02:36.233Z,0.00
2022-10-10T01:03:36.223Z,0.00
2022-10-10T01:04:36.234Z,0.00
2022-10-10T01:05:36.283Z,0.00
2022-10-10T01:06:36.184Z,0.00
2022-10-10T01:07:36.167Z,0.00
2022-10-10T01:08:36.186Z,0.00
2022-10-10T01:09:36.155Z,0.00
2022-10-10T01:10:36.142Z,0.00
2022-10-10T01:11:36.127Z,0.00
2022-10-10T01:12:36.125Z,0.00
2022-10-10T01:13:36.106Z,0.00
2022-10-10T01:14:36.104Z,0.00
2022-10-10T01:15:36.090Z,0.00
2022-10-10T01:16:36.073Z,0.00
2022-10-10T01:17:36.086Z,0.00
2022-10-10T01:18:36.046Z,0.00
2022-10-10T01:19:36.036Z,0.00
2022-10-10T01:20:36.056Z,0.00
2022-10-10T01:21:36.025Z,0.00
2022-10-10T01:22:36.026Z,0.00
2022-10-10T01:23:35.998Z,0.00
2022-10-10T01:24:35.985Z,0.00
2022-10-10T01:25:35.974Z,0.00
2022-10-10T01:26:35.969Z,0.00
2022-10-10T01:27:35.979Z,0.00
2022-10-10T01:28:35.998Z,0.00
2022-10-10T01:29:35.946Z,0.00
2022-10-10T01:30:35.915Z,0.00
2022-10-10T01:31:35.948Z,0.00
2022-10-10T01:32:35.923Z,0.00
2022-10-10T01:33:35.888Z,0.00
2022-10-10T01:34:35.887Z,0.00
2022-10-10T01:35:35.879Z,0.00
2022-10-10T01:36:35.867Z,0.00
2022-10-10T01:37:35.859Z,0.00
2022-10-10T01:38:35.838Z,0.00
2022-10-10T01:39:35.859Z,0.00
2022-10-10T01:40:35.808Z,0.00
2022-10-10T01:41:35.806Z,0.00
2022-10-10T01:42:35.796Z,0.00
2022-10-10T01:43:35.803Z,0.00
2022-10-10T01:44:35.776Z,0.00
2022-10-10T01:45:35.748Z,0.00
2022-10-10T01:46:35.762Z,0.00
2022-10-10T01:47:35.751Z,0.00
2022-10-10T01:48:35.729Z,0.00
2022-10-10T01:49:35.730Z,0.00
2022-10-10T01:50:35.717Z,0.00
2022-10-10T01:51:35.710Z,0.00
2022-10-10T01:52:35.708Z,0.00
2022-10-10T01:53:35.692Z,0.00
2022-10-10T01:54:35.662Z,0.00
2022-10-10T01:55:35.668Z,0.00
2022-10-10T01:56:35.646Z,0.00
2022-10-10T01:57:35.639Z,0.00
2022-10-10T01:58:35.650Z,0.00
2022-10-10T01:59:35.726Z,0.00
2022-10-10T02:00:35.644Z,0.00
2022-10-10T02:01:35.599Z,0.00
2022-10-10T02:02:35.581Z,0.00
2022-10-10T02:03:35.561Z,0.00
2022-10-10T02:04:35.549Z,0.00
2022-10-10T02:05:35.560Z,0.00
2022-10-10T02:06:35.549Z,0.00
2022-10-10T02:07:35.535Z,0.00
2022-10-10T02:08:35.509Z,0.00
2022-10-10T02:09:35.510Z,0.00
2022-10-10T02:10:35.485Z,0.00
2022-10-10T02:11:35.473Z,0.00
2022-10-10T02:12:35.462Z,0.00
2022-10-10T02:13:35.465Z,0.00
2022-10-10T02:14:35.511Z,0.00
2022-10-10T02:15:35.431Z,0.00
2022-10-10T02:16:35.420Z,0.00
2022-10-10T02:17:35.572Z,0.00
2022-10-10T02:18:35.393Z,0.00
2022-10-10T02:19:35.392Z,0.00
2022-10-10T02:20:35.371Z,0.00
2022-10-10T02:21:35.364Z,0.00
2022-10-10T02:22:35.369Z,0.00
2022-10-10T02:23:35.343Z,0.00
2022-10-10T02:24:35.322Z,0.00
2022-10-10T02:25:35.336Z,0.00
2022-10-10T02:26:35.313Z,0.00
2022-10-10T02:27:35.294Z,0.00
2022-10-10T02:28:35.318Z,0.00
2022-10-10T02:29:35.281Z,0.00
2022-10-10T02:30:35.263Z,0.00
2022-10-10T02:31:35.287Z,0.00
2022-10-10T02:32:35.265Z,0.00
2022-10-10T02:33:35.256Z,0.00
2022-10-10T02:34:35.214Z,0.00
2022-10-10T02:35:35.214Z,0.00
2022-10-10T02:36:35.205Z,0.00
2022-10-10T02:37:35.285Z,0.00
2022-10-10T02:38:35.178Z,0.00
2022-10-10T02:39:35.209Z,0.00
2022-10-10T02:40:35.160Z,0.00
2022-10-10T02:41:35.154Z,0.00
2022-10-10T02:42:35.154Z,0.00
2022-10-10T02:43:35.146Z,0.00
2022-10-10T02:44:35.114Z,0.00
2022-10-10T02:45:35.109Z,0.00
2022-10-10T02:46:35.102Z,0.00
2022-10-10T02:47:35.088Z,0.00
2022-10-10T02:48:35.067Z,0.00
2022-10-10T02:49:35.136Z,0.00
2022-10-10T02:50:35.052Z,0.00
2022-10-10T02:51:35.035Z,0.00
2022-10-10T02:52:35.037Z,0.00
2022-10-10T02:53:35.038Z,0.00
2022-10-10T02:54:34.997Z,0.00
2022-10-10T02:55:35.020Z,0.00
2022-10-10T02:56:34.985Z,0.00
2022-10-10T02:57:34.977Z,0.00
2022-10-10T02:58:34.968Z,0.00
2022-10-10T02:59:34.948Z,0.00
2022-10-10T03:00:34.937Z,0.00
2022-10-10T03:01:34.935Z,0.00
2022-10-10T03:02:34.925Z,0.00
2022-10-10T03:03:34.917Z,0.00
2022-10-10T03:04:34.896Z,0.00
2022-10-10T03:05:34.877Z,0.00
2022-10-10T03:06:34.868Z,0.00
2022-10-10T03:07:34.868Z,0.00
2022-10-10T03:08:34.847Z,0.00
2022-10-10T03:09:34.848Z,0.00
2022-10-10T03:10:34.828Z,0.00
2022-10-10T03:11:34.838Z,0.00
2022-10-10T03:12:34.822Z,0.00
2022-10-10T03:13:34.798Z,0.00
2022-10-10T03:14:34.779Z,0.00
2022-10-10T03:15:34.769Z,0.00
2022-10-10T03:16:34.769Z,0.00
2022-10-10T03:17:34.769Z,0.00
2022-10-10T03:18:34.748Z,0.00
2022-10-10T03:19:34.744Z,0.00
2022-10-10T03:20:34.719Z,0.00
2022-10-10T03:21:34.731Z,0.00
2022-10-10T03:22:34.718Z,0.00
2022-10-10T03:23:34.690Z,0.00
2022-10-10T03:24:34.681Z,0.00
2022-10-10T03:25:34.660Z,0.00
2022-10-10T03:26:34.680Z,0.00
2022-10-10T03:27:34.640Z,0.00
2022-10-10T03:28:34.802Z,0.00
2022-10-10T03:29:34.621Z,0.00
2022-10-10T03:30:34.610Z,0.00
2022-10-10T03:31:34.652Z,0.00
2022-10-10T03:32:34.593Z,0.00
2022-10-10T03:33:34.602Z,0.00
2022-10-10T03:34:34.574Z,0.00
2022-10-10T03:35:34.557Z,0.00
2022-10-10T03:36:34.550Z,0.00
2022-10-10T03:37:34.544Z,0.00
2022-10-10T03:38:34.567Z,0.00
2022-10-10T03:39:34.531Z,0.00
2022-10-10T03:40:34.493Z,0.00
2022-10-10T03:41:34.491Z,0.00
2022-10-10T03:42:34.471Z,0.00
2022-10-10T03:43:34.517Z,0.00
2022-10-10T03:44:34.455Z,0.00
2022-10-10T03:45:34.440Z,0.00
2022-10-10T03:46:34.435Z,0.00
2022-10-10T03:47:34.421Z,0.00
2022-10-10T03:48:34.415Z,0.00
2022-10-10T03:49:34.403Z,0.00
2022-10-10T03:50:34.392Z,0.00
2022-10-10T03:51:34.382Z,0.00
2022-10-10T03:52:34.372Z,0.00
2022-10-10T03:53:34.383Z,0.00
2022-10-10T03:54:34.353Z,0.00
2022-10-10T03:55:34.344Z,0.00
2022-10-10T03:56:34.344Z,0.00
2022-10-10T03:57:34.344Z,0.00
2022-10-10T03:58:34.324Z,0.00
2022-10-10T03:59:34.295Z,0.00
2022-10-10T04:00:34.312Z,0.00
2022-10-10T04:01:34.330Z,0.00
2022-10-10T04:02:34.270Z,0.00
2022-10-10T04:03:34.255Z,0.00
2022-10-10T04:04:34.235Z,0.00
2022-10-10T04:05:34.225Z,0.00
2022-10-10T04:06:34.218Z,0.00
2022-10-10T04:07:34.215Z,0.00
2022-10-10T04:08:34.212Z,0.00
2022-10-10T04:09:34.184Z,0.00
2022-10-10T04:10:34.185Z,0.00
2022-10-10T04:11:34.204Z,0.00
2022-10-10T04:12:34.148Z,0.00
2022-10-10T04:13:34.156Z,0.00
2022-10-10T04:14:34.216Z,0.00
2022-10-10T04:15:34.128Z,0.00
2022-10-10T04:16:34.115Z,0.00
2022-10-10T04:17:34.105Z,0.00
2022-10-10T04:18:34.219Z,0.00
2022-10-10T04:19:34.076Z,0.00
2022-10-10T04:20:34.079Z,0.00
2022-10-10T04:21:34.116Z,0.00
2022-10-10T04:22:34.047Z,0.00
2022-10-10T04:23:34.045Z,0.00
2022-10-10T04:24:34.018Z,0.00
2022-10-10T04:25:34.007Z,0.00
2022-10-10T04:26:34.029Z,0.00
2022-10-10T04:27:33.977Z,0.00
2022-10-10T04:28:34.215Z,0.00
2022-10-10T04:29:33.978Z,0.00
2022-10-10T04:30:33.960Z,0.00
2022-10-10T04:31:34.079Z,0.00
2022-10-10T04:32:33.942Z,0.00
2022-10-10T04:33:33.929Z,0.00
2022-10-10T04:34:33.911Z,0.00
2022-10-10T04:35:33.898Z,0.00
2022-10-10T04:36:34.046Z,0.00
2022-10-10T04:37:33.870Z,0.00
2022-10-10T04:38:33.868Z,0.00
2022-10-10T04:39:33.886Z,0.00
2022-10-10T04:40:33.869Z,0.00
2022-10-10T04:41:33.878Z,0.00
2022-10-10T04:42:33.821Z,0.00
2022-10-10T04:43:34.008Z,0.00
2022-10-10T04:44:33.800Z,0.00
2022-10-10T04:45:37.416Z,0.00
2022-10-10T04:46:33.850Z,0.00
2022-10-10T04:47:33.761Z,0.00
2022-10-10T04:48:33.768Z,0.00
2022-10-10T04:49:33.742Z,0.00
2022-10-10T04:50:33.780Z,0.00
2022-10-10T04:51:33.712Z,0.00
2022-10-10T04:52:33.711Z,0.00
2022-10-10T04:53:33.720Z,0.00
2022-10-10T04:54:33.713Z,0.00
2022-10-10T04:55:33.679Z,0.00
2022-10-10T04:56:33.695Z,0.00
2022-10-10T04:57:33.667Z,0.00
2022-10-10T04:58:33.663Z,0.00
2022-10-10T04:59:33.640Z,0.00
2022-10-10T05:00:33.621Z,0.00
2022-10-10T05:01:33.726Z,0.00
2022-10-10T05:02:33.622Z,0.00
2022-10-10T05:03:33.601Z,0.00
2022-10-10T05:04:33.593Z,0.00
2022-10-10T05:05:33.564Z,0.00
2022-10-10T05:06:33.563Z,0.00
2022-10-10T05:07:33.552Z,0.00
2022-10-10T05:08:33.582Z,0.00
2022-10-10T05:09:33.532Z,0.00
2022-10-10T05:10:33.575Z,0.00
2022-10-10T05:11:33.503Z,0.00
2022-10-10T05:12:33.490Z,0.00
2022-10-10T05:13:33.495Z,4.00
2022-10-10T05:14:33.471Z,4.00
2022-10-10T05:15:33.453Z,4.00
2022-10-10T05:16:33.454Z,4.00
2022-10-10T05:17:33.433Z,4.00
2022-10-10T05:18:33.454Z,8.00
2022-10-10T05:19:33.414Z,4.00
2022-10-10T05:20:33.396Z,8.00
2022-10-10T05:21:33.400Z,8.00
2022-10-10T05:22:33.385Z,8.00
2022-10-10T05:23:33.375Z,12.00
2022-10-10T05:24:33.385Z,16.00
2022-10-10T05:25:33.364Z,20.00
2022-10-10T05:26:33.344Z,24.00
2022-10-10T05:27:33.315Z,28.00
2022-10-10T05:28:33.505Z,36.00
2022-10-10T05:29:33.315Z,40.00
2022-10-10T05:30:33.311Z,52.00
2022-10-10T05:31:33.276Z,56.00
2022-10-10T05:32:33.275Z,72.00
2022-10-10T05:33:33.267Z,84.00
2022-10-10T05:34:33.256Z,100.00
2022-10-10T05:35:33.256Z,116.00
2022-10-10T05:36:33.314Z,136.00
2022-10-10T05:37:33.225Z,160.00
2022-10-10T05:38:33.216Z,180.00
2022-10-10T05:39:33.196Z,208.00
2022-10-10T05:40:33.187Z,240.00
2022-10-10T05:41:33.179Z,272.00
2022-10-10T05:42:33.168Z,308.00
2022-10-10T05:43:33.167Z,344.00
2022-10-10T05:44:33.146Z,384.00
2022-10-10T05:45:33.145Z,428.00
2022-10-10T05:46:33.118Z,468.00
2022-10-10T05:47:33.117Z,516.00
2022-10-10T05:48:33.113Z,568.00
2022-10-10T05:49:33.096Z,620.00
2022-10-10T05:50:33.088Z,676.00
2022-10-10T05:51:33.058Z,732.00
2022-10-10T05:52:33.065Z,784.00
2022-10-10T05:53:33.059Z,848.00
2022-10-10T05:54:33.031Z,908.00
2022-10-10T05:55:33.028Z,976.00
2022-10-10T05:56:33.010Z,1040.00
2022-10-10T05:57:33.004Z,1112.00
2022-10-10T05:58:32.999Z,1180.00
2022-10-10T05:59:32.979Z,1252.00
2022-10-10T06:00:32.959Z,1324.00
2022-10-10T06:01:32.961Z,1400.00
2022-10-10T06:02:32.977Z,1472.00
2022-10-10T06:03:32.947Z,1552.00
2022-10-10T06:04:32.931Z,1632.00
2022-10-10T06:05:33.089Z,1712.00
2022-10-10T06:06:32.903Z,1792.00
2022-10-10T06:07:58.992Z,1876.00
2022-10-10T06:08:33.888Z,1960.00
2022-10-10T06:09:32.891Z,2040.00
2022-10-10T06:10:32.851Z,2120.00
2022-10-10T06:11:32.858Z,2200.00
2022-10-10T06:12:32.831Z,2288.00
2022-10-10T06:13:32.832Z,2372.00
2022-10-10T06:14:32.813Z,2456.00
2022-10-10T06:15:32.841Z,2548.00
2022-10-10T06:16:32.817Z,2632.00
2022-10-10T06:17:32.781Z,2720.00
2022-10-10T06:18:32.781Z,2804.00
2022-10-10T06:19:32.772Z,2896.00
2022-10-10T06:20:32.903Z,2984.00
2022-10-10T06:21:32.734Z,3072.00
2022-10-10T06:22:32.724Z,3164.00
2022-10-10T06:23:32.739Z,3248.00
2022-10-10T06:24:32.703Z,3336.00
2022-10-10T06:25:41.294Z,3420.00
2022-10-10T06:26:33.683Z,3504.00
2022-10-10T06:27:32.683Z,3592.00
2022-10-10T06:28:32.709Z,3676.00
2022-10-10T06:29:32.645Z,3764.00
2022-10-10T06:30:32.653Z,3852.00
2022-10-10T06:31:32.645Z,3940.00
2022-10-10T06:32:32.622Z,4032.00
2022-10-10T06:33:32.615Z,4116.00
2022-10-10T06:34:32.594Z,4200.00
2022-10-10T06:35:32.601Z,4284.00
2022-10-10T06:36:32.625Z,4380.00
2022-10-10T06:37:32.566Z,4476.00
2022-10-10T06:38:32.686Z,4568.00
2022-10-10T06:39:32.545Z,4664.00
2022-10-10T06:40:32.528Z,4756.00
2022-10-10T06:41:32.522Z,4848.00
2022-10-10T06:42:32.505Z,4936.00
2022-10-10T06:43:32.505Z,5028.00
2022-10-10T06:44:32.487Z,5116.00
2022-10-10T06:45:32.473Z,5208.00
2022-10-10T06:46:32.458Z,5296.00
2022-10-10T06:47:32.458Z,5384.00
2022-10-10T06:48:32.464Z,5472.00
2022-10-10T06:49:32.441Z,5556.00
2022-10-10T06:50:32.475Z,5652.00
2022-10-10T06:51:32.406Z,5760.00
2022-10-10T06:52:32.418Z,5864.00
2022-10-10T06:53:32.399Z,5968.00
2022-10-10T06:54:34.423Z,6080.00
2022-10-10T06:55:32.371Z,6192.00
2022-10-10T06:56:32.358Z,6308.00
2022-10-10T06:57:32.342Z,6432.00
2022-10-10T06:58:32.370Z,6960.00
2022-10-10T06:59:32.317Z,7592.00
2022-10-10T07:00:32.301Z,7604.00
2022-10-10T07:01:32.371Z,7640.00
2022-10-10T07:02:32.319Z,7052.00
2022-10-10T07:03:32.289Z,7028.00
2022-10-10T07:04:39.317Z,7112.00
2022-10-10T07:05:32.253Z,7260.00
2022-10-10T07:06:34.804Z,7880.00
2022-10-10T07:07:32.232Z,9280.00
2022-10-10T07:08:32.238Z,10388.00
2022-10-10T07:09:32.222Z,8420.00
2022-10-10T07:10:32.197Z,7840.00
2022-10-10T07:11:32.197Z,7960.00
2022-10-10T07:12:39.520Z,8124.00
2022-10-10T07:13:34.946Z,8588.00
2022-10-10T07:14:32.156Z,8900.00
2022-10-10T07:15:32.143Z,10180.00
2022-10-10T07:16:32.744Z,12664.00
2022-10-10T07:17:32.126Z,11092.00
2022-10-10T07:18:32.115Z,10324.00
2022-10-10T07:19:32.106Z,11412.00
2022-10-10T07:20:32.101Z,9724.00
2022-10-10T07:21:32.111Z,9324.00
2022-10-10T07:22:32.072Z,9440.00
2022-10-10T07:23:32.068Z,9696.00
2022-10-10T07:24:32.045Z,9772.00
2022-10-10T07:25:32.027Z,9956.00
2022-10-10T07:26:32.018Z,10260.00
2022-10-10T07:27:32.007Z,12268.00
2022-10-10T07:28:32.069Z,14036.00
2022-10-10T07:29:31.988Z,20160.00
2022-10-10T07:30:31.979Z,26688.00
2022-10-10T07:31:31.988Z,29024.00
2022-10-10T07:32:31.948Z,49440.00
2022-10-10T07:33:31.951Z,40512.00
2022-10-10T07:34:31.940Z,45152.00
2022-10-10T07:35:31.930Z,31328.00
2022-10-10T07:36:31.993Z,13668.00
2022-10-10T07:37:31.926Z,11396.00
2022-10-10T07:38:31.987Z,11388.00
2022-10-10T07:39:31.879Z,11400.00
2022-10-10T07:40:31.890Z,11496.00
2022-10-10T07:41:31.870Z,11636.00
2022-10-10T07:42:31.832Z,11844.00
2022-10-10T07:43:31.854Z,12060.00
2022-10-10T07:44:34.532Z,12208.00
2022-10-10T07:45:31.811Z,12304.00
2022-10-10T07:46:31.802Z,12400.00
2022-10-10T07:47:31.792Z,12512.00
2022-10-10T07:48:31.782Z,12652.00
2022-10-10T07:49:31.774Z,12788.00
2022-10-10T07:50:31.752Z,12920.00
2022-10-10T07:51:31.751Z,12996.00
2022-10-10T07:52:31.733Z,13016.00
2022-10-10T07:53:31.855Z,13004.00
2022-10-10T07:54:31.703Z,13060.00
2022-10-10T07:55:31.704Z,13172.00
2022-10-10T07:56:31.687Z,13320.00
2022-10-10T07:57:31.742Z,13464.00
2022-10-10T07:58:31.696Z,13612.00
2022-10-10T07:59:31.696Z,13784.00
2022-10-10T08:00:31.664Z,13924.00
2022-10-10T08:01:31.677Z,13988.00
2022-10-10T08:02:31.637Z,14008.00
2022-10-10T08:03:31.628Z,14072.00
2022-10-10T08:04:31.597Z,14136.00
2022-10-10T08:05:31.594Z,14192.00
2022-10-10T08:06:31.566Z,14308.00
2022-10-10T08:07:31.678Z,14436.00
2022-10-10T08:08:34.247Z,14544.00
2022-10-10T08:09:31.540Z,14564.00
2022-10-10T08:10:31.608Z,14588.00
2022-10-10T08:11:31.556Z,14664.00
2022-10-10T08:12:31.512Z,14492.00
2022-10-10T08:13:31.512Z,14400.00
2022-10-10T08:14:31.492Z,14508.00
2022-10-10T08:15:33.852Z,14584.00
2022-10-10T08:16:31.467Z,14716.00
2022-10-10T08:17:31.459Z,14928.00
2022-10-10T08:18:34.260Z,15188.00
2022-10-10T08:19:31.441Z,15520.00
2022-10-10T08:20:31.587Z,15672.00
2022-10-10T08:21:31.422Z,15804.00
2022-10-10T08:22:31.421Z,15908.00
2022-10-10T08:23:31.412Z,15948.00
2022-10-10T08:24:31.372Z,16024.00
2022-10-10T08:25:31.416Z,16128.00
2022-10-10T08:26:31.361Z,16184.00
2022-10-10T08:27:31.351Z,16440.00
2022-10-10T08:28:31.423Z,16448.00
2022-10-10T08:29:31.333Z,16356.00
2022-10-10T08:30:31.331Z,16308.00
2022-10-10T08:31:31.303Z,16148.00
2022-10-10T08:32:31.286Z,16036.00
2022-10-10T08:33:31.283Z,15788.00
2022-10-10T08:34:31.274Z,15720.00
2022-10-10T08:35:31.263Z,15696.00
2022-10-10T08:36:31.243Z,15752.00
2022-10-10T08:37:36.465Z,15752.00
2022-10-10T08:38:32.225Z,15612.00
2022-10-10T08:39:31.207Z,15388.00
2022-10-10T08:40:31.201Z,15184.00
2022-10-10T08:41:31.204Z,15088.00
2022-10-10T08:42:31.184Z,14888.00
2022-10-10T08:43:31.185Z,14708.00
2022-10-10T08:44:31.156Z,14524.00
2022-10-10T08:45:31.146Z,14016.00
2022-10-10T08:46:31.147Z,13644.00
2022-10-10T08:47:31.131Z,13496.00
2022-10-10T08:48:31.129Z,13176.00
2022-10-10T08:49:31.107Z,13052.00
2022-10-10T08:50:31.088Z,12868.00
2022-10-10T08:51:31.091Z,12708.00
2022-10-10T08:52:31.069Z,12668.00
2022-10-10T08:53:31.268Z,12708.00
2022-10-10T08:54:31.051Z,12628.00
2022-10-10T08:55:31.049Z,12460.00
2022-10-10T08:56:31.021Z,12244.00
2022-10-10T08:57:31.021Z,12100.00
2022-10-10T08:58:31.034Z,11868.00
2022-10-10T08:59:31.027Z,11544.00
2022-10-10T09:00:31.053Z,11412.00
2022-10-10T09:01:30.991Z,11224.00
2022-10-10T09:02:50.075Z,11012.00
2022-10-10T09:03:31.960Z,10712.00
2022-10-10T09:04:30.953Z,10416.00
2022-10-10T09:05:30.940Z,10144.00
2022-10-10T09:06:30.917Z,9888.00
2022-10-10T09:07:30.908Z,9600.00
2022-10-10T09:08:30.895Z,9572.00
2022-10-10T09:09:31.036Z,9792.00
2022-10-10T09:10:30.998Z,9788.00
2022-10-10T09:11:30.865Z,9768.00
2022-10-10T09:12:31.288Z,9800.00
2022-10-10T09:13:30.865Z,9752.00
2022-10-10T09:14:30.823Z,9708.00
2022-10-10T09:15:30.823Z,9752.00
2022-10-10T09:16:30.797Z,9796.00
2022-10-10T09:17:30.824Z,9872.00
2022-10-10T09:18:30.792Z,9892.00
2022-10-10T09:19:30.765Z,9988.00
2022-10-10T09:20:30.766Z,10020.00
2022-10-10T09:21:30.771Z,9940.00
2022-10-10T09:22:30.748Z,9900.00
2022-10-10T09:23:30.736Z,9876.00
2022-10-10T09:24:30.736Z,9928.00
2022-10-10T09:25:32.489Z,10020.00
2022-10-10T09:26:30.732Z,10184.00
2022-10-10T09:27:30.688Z,26784.00
2022-10-10T09:28:30.737Z,74528.00
2022-10-10T09:29:30.689Z,104384.00
2022-10-10T09:30:30.669Z,98304.00
2022-10-10T09:31:30.650Z,103968.00
2022-10-10T09:32:30.686Z,104512.00
2022-10-10T09:33:30.644Z,107200.00
2022-10-10T09:34:30.614Z,109760.00
2022-10-10T09:35:30.592Z,107904.00
2022-10-10T09:36:30.582Z,103456.00
2022-10-10T09:37:46.409Z,100064.00
2022-10-10T09:38:31.584Z,95488.00
2022-10-10T09:39:30.552Z,98272.00
2022-10-10T09:40:30.544Z,97312.00
2022-10-10T09:41:30.533Z,93376.00
2022-10-10T09:42:30.516Z,101472.00
2022-10-10T09:43:30.518Z,103136.00
2022-10-10T09:44:30.496Z,106912.00
2022-10-10T09:45:30.485Z,96000.00
2022-10-10T09:46:30.598Z,99968.00
2022-10-10T09:47:30.480Z,94880.00
2022-10-10T09:48:30.499Z,81408.00
2022-10-10T09:49:30.437Z,82816.00
2022-10-10T09:50:30.439Z,69664.00
2022-10-10T09:51:30.429Z,93888.00
2022-10-10T09:52:30.419Z,100320.00
2022-10-10T09:53:30.410Z,101440.00
2022-10-10T09:54:30.389Z,96928.00
2022-10-10T09:55:30.394Z,112864.00
2022-10-10T09:56:30.389Z,99552.00
2022-10-10T09:57:30.363Z,108128.00
2022-10-10T09:58:30.395Z,108928.00
2022-10-10T09:59:30.341Z,103392.00
2022-10-10T10:00:30.336Z,104832.00
2022-10-10T10:01:30.345Z,103008.00
2022-10-10T10:02:30.311Z,105600.00
2022-10-10T10:03:30.408Z,104832.00
2022-10-10T10:04:30.336Z,107136.00
2022-10-10T10:05:31.716Z,108000.00
2022-10-10T10:06:30.277Z,97568.00
2022-10-10T10:07:30.270Z,96288.00
2022-10-10T10:08:30.307Z,105344.00
2022-10-10T10:09:30.237Z,102240.00
2022-10-10T10:10:30.234Z,96448.00
2022-10-10T10:11:30.223Z,92960.00
2022-10-10T10:12:30.199Z,91872.00
2022-10-10T10:13:30.289Z,98656.00
2022-10-10T10:14:30.192Z,110720.00
2022-10-10T10:15:30.275Z,106432.00
2022-10-10T10:16:30.160Z,102688.00
2022-10-10T10:17:30.163Z,114912.00
2022-10-10T10:18:30.154Z,109728.00
2022-10-10T10:19:30.143Z,112512.00
2022-10-10T10:20:31.084Z,118208.00
2022-10-10T10:21:30.113Z,118016.00
2022-10-10T10:22:30.462Z,111616.00
2022-10-10T10:23:30.108Z,118432.00
2022-10-10T10:24:30.085Z,111712.00
2022-10-10T10:25:31.514Z,116512.00
2022-10-10T10:26:30.240Z,112896.00
2022-10-10T10:27:30.057Z,112352.00
2022-10-10T10:28:30.141Z,95296.00
2022-10-10T10:29:30.041Z,87168.00
2022-10-10T10:30:30.021Z,86592.00
2022-10-10T10:31:30.011Z,60768.00
2022-10-10T10:32:30.020Z,62720.00
2022-10-10T10:33:30.017Z,58464.00
2022-10-10T10:34:29.981Z,71744.00
2022-10-10T10:35:29.989Z,69024.00
2022-10-10T10:36:29.971Z,82816.00
2022-10-10T10:37:29.963Z,92640.00
2022-10-10T10:38:30.092Z,84416.00
2022-10-10T10:39:29.978Z,77280.00
2022-10-10T10:40:29.966Z,67808.00
2022-10-10T10:41:29.915Z,76576.00
2022-10-10T10:42:29.897Z,78432.00
2022-10-10T10:43:29.917Z,79232.00
2022-10-10T10:44:29.876Z,86144.00
2022-10-10T10:45:29.869Z,75072.00
2022-10-10T10:46:29.871Z,74528.00
2022-10-10T10:47:29.925Z,72640.00
2022-10-10T10:48:29.848Z,72576.00
2022-10-10T10:49:29.839Z,96224.00
2022-10-10T10:50:29.829Z,90176.00
2022-10-10T10:51:29.809Z,107712.00
2022-10-10T10:52:29.800Z,109952.00
2022-10-10T10:53:29.801Z,103616.00
2022-10-10T10:54:29.783Z,116960.00
2022-10-10T10:55:32.906Z,119616.00
2022-10-10T10:56:29.791Z,108064.00
2022-10-10T10:57:36.843Z,100640.00
2022-10-10T10:59:22.508Z,82304.00
2022-10-10T11:00:20.787Z,82304.00
2022-10-10T11:01:55.202Z,92576.00
2022-10-10T11:02:55.053Z,91168.00
2022-10-10T11:05:17.446Z,96352.00
2022-10-10T11:05:19.394Z,108640.00
2022-10-10T11:05:36.743Z,114976.00
2022-10-10T11:06:30.758Z,110336.00
2022-10-10T11:07:29.810Z,99520.00
2022-10-10T11:08:29.650Z,65472.00
2022-10-10T11:09:51.301Z,73984.00
2022-10-10T11:10:30.635Z,78336.00
2022-10-10T11:11:29.634Z,95680.00
2022-10-10T11:12:29.622Z,49728.00
2022-10-10T11:13:29.611Z,48480.00
2022-10-10T11:14:29.941Z,42592.00
2022-10-10T11:15:54.231Z,46496.00
2022-10-10T11:16:47.283Z,54208.00
2022-10-10T11:17:34.920Z,38848.00
2022-10-10T11:18:30.545Z,36512.00
2022-10-10T11:19:29.534Z,30528.00
2022-10-10T11:20:29.515Z,36128.00
2022-10-10T11:21:29.513Z,35168.00
2022-10-10T11:22:29.500Z,44416.00
2022-10-10T11:23:29.506Z,78880.00
2022-10-10T11:24:29.478Z,92960.00
2022-10-10T11:25:29.469Z,68544.00
2022-10-10T11:26:29.458Z,86848.00
2022-10-10T11:27:29.448Z,105248.00
2022-10-10T11:28:29.523Z,115616.00
2022-10-10T11:29:29.430Z,93920.00
2022-10-10T11:30:29.421Z,80768.00
2022-10-10T11:31:29.426Z,55712.00
2022-10-10T11:32:29.392Z,50560.00
2022-10-10T11:33:29.458Z,46688.00
2022-10-10T11:34:29.376Z,58592.00
2022-10-10T11:35:29.394Z,37728.00
2022-10-10T11:36:29.356Z,40576.00
2022-10-10T11:37:29.363Z,50016.00
2022-10-10T11:38:29.338Z,64672.00
2022-10-10T11:39:29.335Z,68416.00
2022-10-10T11:40:29.308Z,88032.00
2022-10-10T11:41:29.323Z,87328.00
2022-10-10T11:42:29.303Z,61568.00
2022-10-10T11:43:29.294Z,77760.00
2022-10-10T11:44:29.280Z,94080.00
2022-10-10T11:45:29.259Z,120768.00
2022-10-10T11:46:29.256Z,112928.00
2022-10-10T11:47:29.288Z,96896.00
2022-10-10T11:48:29.240Z,90496.00
2022-10-10T11:49:29.241Z,76512.00
2022-10-10T11:50:29.211Z,58272.00
2022-10-10T11:51:29.222Z,50016.00
2022-10-10T11:52:34.078Z,92416.00
2022-10-10T11:53:30.184Z,85408.00
2022-10-10T11:54:29.702Z,99232.00
2022-10-10T11:55:29.172Z,78016.00
2022-10-10T11:56:29.159Z,72576.00
2022-10-10T11:57:29.162Z,58112.00
2022-10-10T11:58:29.136Z,53184.00
2022-10-10T11:59:29.135Z,41888.00
2022-10-10T12:00:29.131Z,42880.00
2022-10-10T12:01:29.245Z,41536.00
2022-10-10T12:02:29.094Z,29920.00
2022-10-10T12:03:29.107Z,30144.00
2022-10-10T12:04:29.093Z,28288.00
2022-10-10T12:05:29.068Z,30304.00
2022-10-10T12:06:29.057Z,28192.00
2022-10-10T12:07:29.041Z,28864.00
2022-10-10T12:08:29.049Z,33312.00
2022-10-10T12:09:29.140Z,35616.00
2022-10-10T12:10:29.011Z,28832.00
2022-10-10T12:11:29.723Z,27264.00
2022-10-10T12:12:28.992Z,26880.00
2022-10-10T12:13:29.474Z,26304.00
2022-10-10T12:14:29.043Z,25888.00
2022-10-10T12:15:28.965Z,26208.00
2022-10-10T12:16:30.738Z,27616.00
2022-10-10T12:17:28.945Z,27200.00
2022-10-10T12:18:28.944Z,28640.00
2022-10-10T12:19:28.934Z,29280.00
2022-10-10T12:20:28.935Z,32128.00
2022-10-10T12:21:30.503Z,29792.00
2022-10-10T12:22:28.891Z,29344.00
2022-10-10T12:23:28.877Z,32064.00
2022-10-10T12:24:28.878Z,30144.00
2022-10-10T12:25:28.868Z,35200.00
2022-10-10T12:26:28.839Z,42656.00
2022-10-10T12:27:28.839Z,31904.00